createdAt,value
2017-10-26T00:01:13.373Z,10.93
2017-10-26T00:03:41.560Z,9.70
2017-10-26T00:06:08.997Z,8.53
2017-10-26T00:08:37.268Z,10.07
2017-10-26T00:11:04.706Z,10.53
2017-10-26T00:13:32.137Z,9.57
2017-10-26T00:15:59.568Z,9.90
2017-10-26T00:18:26.996Z,9.00
2017-10-26T00:20:54.432Z,10.50
2017-10-26T00:23:21.865Z,10.87
2017-10-26T00:25:49.301Z,11.90
2017-10-26T00:28:16.742Z,12.03
2017-10-26T00:30:44.945Z,10.27
2017-10-26T00:33:12.370Z,10.77
2017-10-26T00:35:41.192Z,10.60
2017-10-26T00:38:08.620Z,10.33
2017-10-26T00:40:36.824Z,9.80
2017-10-26T00:43:04.248Z,10.03
2017-10-26T00:45:32.457Z,10.73
2017-10-26T00:47:59.882Z,9.53
2017-10-26T00:50:28.163Z,9.53
2017-10-26T00:52:56.357Z,11.37
2017-10-26T00:55:23.785Z,9.83
2017-10-26T00:57:51.980Z,9.63
2017-10-26T01:00:19.407Z,11.27
2017-10-26T01:02:47.606Z,9.47
2017-10-26T01:05:15.045Z,10.57
2017-10-26T01:07:43.264Z,10.60
2017-10-26T01:10:10.721Z,10.87
2017-10-26T01:12:38.169Z,11.73
2017-10-26T01:15:05.595Z,9.63
2017-10-26T01:17:33.787Z,9.63
2017-10-26T01:20:01.216Z,10.17
2017-10-26T01:22:29.414Z,9.33
2017-10-26T01:24:56.845Z,10.30
2017-10-26T01:27:25.043Z,9.40
2017-10-26T01:29:52.473Z,10.77
2017-10-26T01:32:19.909Z,10.73
2017-10-26T01:34:47.336Z,9.70
2017-10-26T01:37:14.770Z,9.57
2017-10-26T01:39:42.200Z,9.33
2017-10-26T01:42:10.401Z,8.53
2017-10-26T01:44:37.828Z,9.17
2017-10-26T01:47:05.255Z,9.97
2017-10-26T01:49:32.684Z,7.83
2017-10-26T01:52:00.126Z,9.13
2017-10-26T01:54:28.570Z,10.13
2017-10-26T01:56:56.009Z,10.00
2017-10-26T01:59:23.445Z,9.90
2017-10-26T02:01:50.876Z,9.30
2017-10-26T02:04:18.303Z,10.23
2017-10-26T02:06:46.505Z,8.87
2017-10-26T02:09:13.935Z,9.90
2017-10-26T02:11:41.376Z,9.30
2017-10-26T02:14:08.845Z,8.87
2017-10-26T02:16:36.264Z,11.10
2017-10-26T02:19:03.693Z,9.27
2017-10-26T02:21:31.137Z,9.93
2017-10-26T02:23:59.336Z,8.70
2017-10-26T02:26:26.761Z,9.27
2017-10-26T02:29:06.771Z,8.90
2017-10-26T02:31:35.741Z,9.90
2017-10-26T02:34:03.164Z,9.17
2017-10-26T02:36:31.348Z,9.73
2017-10-26T02:38:58.772Z,9.27
2017-10-26T02:41:26.196Z,7.97
2017-10-26T02:43:53.634Z,8.10
2017-10-26T02:46:21.056Z,9.17
2017-10-26T02:48:49.259Z,7.33
2017-10-26T02:51:16.693Z,7.43
2017-10-26T02:53:44.888Z,6.43
2017-10-26T02:56:12.317Z,8.33
2017-10-26T02:58:40.519Z,10.70
2017-10-26T03:01:07.948Z,11.00
2017-10-26T03:03:36.156Z,10.33
2017-10-26T03:06:03.585Z,9.63
2017-10-26T03:08:31.802Z,11.17
2017-10-26T03:10:59.227Z,11.00
2017-10-26T03:13:27.437Z,11.20
2017-10-26T03:15:54.871Z,12.20
2017-10-26T03:18:22.301Z,11.30
2017-10-26T03:20:50.496Z,9.73
2017-10-26T03:23:17.931Z,11.10
2017-10-26T03:25:46.120Z,9.77
2017-10-26T03:28:13.603Z,9.40
2017-10-26T03:30:42.058Z,10.30
2017-10-26T03:33:10.259Z,10.00
2017-10-26T03:35:37.676Z,9.80
2017-10-26T03:38:05.888Z,9.97
2017-10-26T03:40:33.304Z,9.77
2017-10-26T03:43:01.508Z,10.43
2017-10-26T03:45:28.938Z,10.43
2017-10-26T03:47:57.128Z,8.70
2017-10-26T03:50:24.551Z,9.43
2017-10-26T03:52:52.003Z,9.77
2017-10-26T03:55:19.422Z,10.20
2017-10-26T03:57:46.839Z,10.50
2017-10-26T04:00:15.055Z,9.50
2017-10-26T04:02:42.475Z,9.83
2017-10-26T04:05:10.672Z,9.43
2017-10-26T04:07:38.091Z,11.20
2017-10-26T04:10:05.531Z,8.70
2017-10-26T04:12:32.954Z,9.17
2017-10-26T04:15:00.375Z,9.83
2017-10-26T04:17:28.591Z,8.60
2017-10-26T04:19:56.021Z,9.67
2017-10-26T04:22:23.460Z,10.50
2017-10-26T04:24:51.647Z,9.67
2017-10-26T04:27:19.071Z,11.80
2017-10-26T04:29:46.500Z,12.83
2017-10-26T04:32:14.684Z,13.43
2017-10-26T04:34:42.120Z,13.20
2017-10-26T04:37:09.548Z,16.80
2017-10-26T04:39:36.982Z,14.83
2017-10-26T04:42:04.399Z,14.40
2017-10-26T04:44:31.837Z,13.30
2017-10-26T04:46:59.274Z,15.30
2017-10-26T04:49:26.714Z,12.73
2017-10-26T04:51:54.913Z,15.17
2017-10-26T04:54:22.340Z,12.43
2017-10-26T04:56:50.536Z,15.10
2017-10-26T04:59:17.967Z,13.53
2017-10-26T05:01:45.415Z,13.67
2017-10-26T05:04:12.860Z,15.97
2017-10-26T05:06:40.304Z,12.57
2017-10-26T05:09:07.745Z,14.40
2017-10-26T05:11:35.208Z,13.30
2017-10-26T05:14:03.648Z,12.60
2017-10-26T05:16:31.832Z,12.07
2017-10-26T05:18:59.272Z,16.70
2017-10-26T05:21:27.464Z,13.23
2017-10-26T05:23:54.892Z,8.70
2017-10-26T05:26:22.318Z,9.03
2017-10-26T05:28:49.758Z,9.50
2017-10-26T05:31:17.176Z,9.60
2017-10-26T05:33:45.385Z,10.27
2017-10-26T05:36:12.832Z,8.90
2017-10-26T05:38:40.263Z,9.03
2017-10-26T05:41:08.451Z,10.47
2017-10-26T05:43:35.889Z,10.40
2017-10-26T05:46:04.080Z,10.30
2017-10-26T05:48:31.519Z,11.60
2017-10-26T05:50:59.712Z,12.00
2017-10-26T05:53:27.168Z,11.40
2017-10-26T05:55:55.396Z,10.83
2017-10-26T05:58:22.839Z,11.33
2017-10-26T06:00:50.379Z,11.20
2017-10-26T06:03:18.815Z,10.83
2017-10-26T06:05:46.245Z,11.20
2017-10-26T06:08:13.700Z,11.50
2017-10-26T06:10:41.140Z,10.00
2017-10-26T06:13:08.563Z,12.07
2017-10-26T06:15:36.756Z,9.90
2017-10-26T06:18:04.173Z,10.53
2017-10-26T06:20:31.627Z,10.17
2017-10-26T06:22:59.049Z,10.90
2017-10-26T06:25:26.510Z,10.97
2017-10-26T06:27:53.931Z,10.70
2017-10-26T06:30:21.369Z,12.70
2017-10-26T06:32:49.559Z,12.70
2017-10-26T06:35:16.996Z,11.17
2017-10-26T06:37:45.193Z,13.73
2017-10-26T06:40:12.619Z,11.73
2017-10-26T06:42:40.050Z,13.27
2017-10-26T06:45:07.484Z,11.80
2017-10-26T06:47:34.915Z,12.50
2017-10-26T06:50:02.360Z,11.37
2017-10-26T06:52:30.544Z,10.37
2017-10-26T06:54:57.981Z,10.60
2017-10-26T06:57:26.177Z,13.80
2017-10-26T06:59:53.605Z,11.23
2017-10-26T07:02:21.038Z,11.50
2017-10-26T07:04:48.475Z,11.10
2017-10-26T07:07:16.011Z,11.33
2017-10-26T07:09:44.215Z,13.30
2017-10-26T07:12:11.627Z,12.23
2017-10-26T07:14:39.833Z,13.30
2017-10-26T07:17:07.279Z,13.43
2017-10-26T07:19:34.715Z,12.97
2017-10-26T07:22:02.185Z,14.67
2017-10-26T07:24:30.364Z,13.20
2017-10-26T07:26:57.795Z,14.67
2017-10-26T07:29:26.007Z,13.00
2017-10-26T07:31:53.428Z,14.60
2017-10-26T07:34:21.641Z,15.37
2017-10-26T07:36:49.092Z,15.40
2017-10-26T07:39:16.496Z,14.23
2017-10-26T07:41:43.923Z,14.00
2017-10-26T07:44:11.367Z,14.13
2017-10-26T07:46:38.812Z,13.67
2017-10-26T07:49:06.255Z,13.47
2017-10-26T07:51:34.503Z,14.80
2017-10-26T07:54:01.937Z,13.50
2017-10-26T07:56:29.368Z,11.87
2017-10-26T07:58:56.800Z,13.20
2017-10-26T08:01:25.284Z,10.30
2017-10-26T08:03:53.455Z,9.63
2017-10-26T08:06:20.892Z,10.00
2017-10-26T08:08:49.089Z,9.70
2017-10-26T08:11:16.519Z,10.63
2017-10-26T08:13:43.967Z,11.70
2017-10-26T08:16:11.406Z,10.20
2017-10-26T08:18:38.841Z,9.60
2017-10-26T08:21:06.281Z,9.53
2017-10-26T08:23:33.718Z,10.30
2017-10-26T08:26:01.919Z,11.40
2017-10-26T08:28:29.355Z,11.90
2017-10-26T08:30:56.803Z,10.90
2017-10-26T08:33:24.991Z,13.00
2017-10-26T08:35:52.423Z,12.90
2017-10-26T08:38:20.631Z,11.73
2017-10-26T08:40:48.064Z,12.50
2017-10-26T08:43:16.252Z,13.83
2017-10-26T08:45:43.699Z,11.63
2017-10-26T08:48:11.906Z,13.47
2017-10-26T08:50:39.344Z,13.40
2017-10-26T08:53:06.775Z,12.63
2017-10-26T08:55:34.209Z,14.40
2017-10-26T08:58:01.645Z,11.87
2017-10-26T09:00:29.072Z,13.80
2017-10-26T09:02:56.522Z,13.00
2017-10-26T09:05:23.948Z,11.60
2017-10-26T09:07:51.379Z,13.53
2017-10-26T09:10:19.581Z,11.53
2017-10-26T09:12:47.837Z,10.90
2017-10-26T09:15:15.318Z,11.37
2017-10-26T09:17:42.749Z,11.60
2017-10-26T09:20:10.180Z,10.33
2017-10-26T09:22:37.621Z,12.20
2017-10-26T09:25:05.052Z,10.60
2017-10-26T09:27:33.327Z,9.80
2017-10-26T09:30:01.523Z,9.80
2017-10-26T09:32:28.965Z,8.63
2017-10-26T09:34:56.396Z,10.00
2017-10-26T09:37:23.830Z,11.20
2017-10-26T09:39:51.272Z,10.53
2017-10-26T09:42:18.775Z,9.87
2017-10-26T09:44:46.213Z,11.27
2017-10-26T09:47:13.652Z,11.30
2017-10-26T09:49:41.080Z,11.33
2017-10-26T09:52:08.512Z,8.70
2017-10-26T09:54:36.699Z,9.60
2017-10-26T09:57:04.968Z,10.23
2017-10-26T09:59:33.164Z,8.40
2017-10-26T10:02:00.587Z,8.63
2017-10-26T10:04:28.031Z,8.40
2017-10-26T10:06:55.464Z,8.47
2017-10-26T10:09:22.891Z,7.73
2017-10-26T10:11:50.322Z,7.37
2017-10-26T10:14:18.503Z,8.03
2017-10-26T10:16:46.701Z,7.20
2017-10-26T10:19:14.128Z,6.57
2017-10-26T10:21:42.317Z,6.77
2017-10-26T10:24:09.749Z,7.00
2017-10-26T10:26:37.992Z,7.17
2017-10-26T10:29:05.420Z,6.97
2017-10-26T10:31:32.845Z,6.77
2017-10-26T10:34:01.034Z,6.00
2017-10-26T10:36:28.465Z,5.63
2017-10-26T10:38:55.899Z,6.37
2017-10-26T10:41:23.340Z,6.77
2017-10-26T10:43:50.755Z,7.27
2017-10-26T10:46:18.938Z,5.80
2017-10-26T10:48:46.369Z,6.70
2017-10-26T10:51:13.787Z,8.87
2017-10-26T10:53:41.232Z,9.37
2017-10-26T10:56:08.682Z,8.17
2017-10-26T10:58:36.354Z,10.23
2017-10-26T11:01:03.851Z,9.77
2017-10-26T11:03:31.291Z,12.03
2017-10-26T11:05:58.704Z,11.97
2017-10-26T11:08:26.141Z,12.10
2017-10-26T11:10:54.346Z,11.67
2017-10-26T11:13:21.772Z,12.70
2017-10-26T11:15:49.985Z,14.40
2017-10-26T11:18:17.501Z,15.33
2017-10-26T11:20:44.947Z,18.03
2017-10-26T11:23:12.377Z,20.27
2017-10-26T11:25:39.816Z,20.60
2017-10-26T11:28:07.252Z,20.30
2017-10-26T11:30:34.683Z,17.93
2017-10-26T11:33:02.900Z,18.40
2017-10-26T11:35:30.332Z,19.90
2017-10-26T11:37:57.765Z,21.17
2017-10-26T11:40:25.195Z,20.83
2017-10-26T11:42:52.632Z,23.00
2017-10-26T11:45:20.067Z,22.10
2017-10-26T11:47:47.500Z,23.30
2017-10-26T11:50:15.704Z,23.17
2017-10-26T11:52:43.145Z,23.70
2017-10-26T11:55:10.585Z,21.83
2017-10-26T11:57:38.779Z,21.90
2017-10-26T12:00:06.229Z,20.33
2017-10-26T12:02:34.415Z,21.97
2017-10-26T12:05:01.847Z,20.97
2017-10-26T12:07:30.044Z,20.67
2017-10-26T12:09:57.479Z,18.77
2017-10-26T12:12:25.673Z,19.47
2017-10-26T12:14:53.116Z,18.03
2017-10-26T12:17:21.308Z,18.13
2017-10-26T12:19:48.745Z,16.23
2017-10-26T12:22:16.938Z,17.87
2017-10-26T12:24:44.363Z,17.87
2017-10-26T12:27:11.969Z,17.03
2017-10-26T12:29:39.394Z,17.77
2017-10-26T12:32:07.591Z,16.60
2017-10-26T12:34:35.035Z,15.10
2017-10-26T12:37:02.567Z,17.70
2017-10-26T12:39:29.993Z,15.03
2017-10-26T12:41:57.433Z,14.57
2017-10-26T12:44:24.876Z,15.17
2017-10-26T12:46:52.304Z,14.80
2017-10-26T12:49:20.505Z,14.37
2017-10-26T12:51:47.944Z,16.57
2017-10-26T12:54:16.141Z,14.40
2017-10-26T12:56:43.571Z,14.97
2017-10-26T12:59:11.763Z,14.47
2017-10-26T13:01:40.237Z,13.33
2017-10-26T13:04:08.427Z,13.60
2017-10-26T13:06:35.872Z,14.00
2017-10-26T13:09:04.219Z,13.70
2017-10-26T13:11:31.648Z,13.97
2017-10-26T13:13:59.087Z,13.73
2017-10-26T13:16:26.524Z,11.90
2017-10-26T13:18:53.947Z,14.03
2017-10-26T13:21:21.380Z,12.90
2017-10-26T13:23:48.813Z,11.90
2017-10-26T13:26:16.243Z,11.30
2017-10-26T13:28:43.671Z,11.70
2017-10-26T13:31:11.108Z,11.93
2017-10-26T13:33:38.539Z,11.93
2017-10-26T13:36:06.056Z,12.20
2017-10-26T13:38:34.260Z,13.30
2017-10-26T13:41:01.684Z,12.10
2017-10-26T13:43:29.975Z,13.37
2017-10-26T13:45:58.176Z,14.67
2017-10-26T13:48:25.609Z,13.13
2017-10-26T13:50:53.817Z,14.07
2017-10-26T13:53:21.244Z,12.03
2017-10-26T13:55:48.684Z,14.13
2017-10-26T13:58:16.905Z,14.10
2017-10-26T14:00:44.319Z,13.10
2017-10-26T14:03:12.532Z,13.60
2017-10-26T14:05:39.960Z,13.77
2017-10-26T14:08:08.208Z,12.33
2017-10-26T14:10:35.666Z,13.07
2017-10-26T14:13:03.109Z,12.03
2017-10-26T14:15:30.542Z,12.90
2017-10-26T14:17:57.971Z,15.43
2017-10-26T14:20:25.409Z,12.73
2017-10-26T14:22:53.658Z,13.30
2017-10-26T14:25:21.083Z,12.83
2017-10-26T14:27:48.515Z,11.63
2017-10-26T14:30:15.947Z,13.47
2017-10-26T14:32:44.144Z,13.83
2017-10-26T14:35:11.598Z,14.53
2017-10-26T14:37:39.783Z,14.00
2017-10-26T14:40:07.263Z,13.60
2017-10-26T14:42:34.728Z,13.27
2017-10-26T14:45:02.151Z,11.87
2017-10-26T14:47:29.583Z,13.93
2017-10-26T14:49:57.795Z,12.90
2017-10-26T14:52:25.235Z,12.23
2017-10-26T14:54:52.655Z,13.80
2017-10-26T14:57:20.096Z,12.07
2017-10-26T14:59:47.537Z,11.77
2017-10-26T15:02:14.984Z,11.90
2017-10-26T15:04:42.434Z,11.13
2017-10-26T15:07:09.856Z,11.10
2017-10-26T15:09:38.057Z,12.47
2017-10-26T15:12:05.488Z,10.50
2017-10-26T15:14:33.716Z,10.70
2017-10-26T15:17:01.156Z,11.20
2017-10-26T15:19:28.596Z,12.27
2017-10-26T15:21:56.032Z,11.00
2017-10-26T15:24:24.224Z,11.07
2017-10-26T15:26:51.656Z,10.77
2017-10-26T15:29:19.094Z,12.20
2017-10-26T15:31:46.532Z,12.10
2017-10-26T15:34:13.968Z,11.40
2017-10-26T15:36:41.421Z,12.27
2017-10-26T15:39:08.843Z,11.03
2017-10-26T15:41:37.056Z,10.37
2017-10-26T15:44:04.522Z,10.90
2017-10-26T15:46:32.112Z,12.13
2017-10-26T15:48:59.611Z,13.93
2017-10-26T15:51:27.049Z,12.50
2017-10-26T15:53:55.300Z,12.00
2017-10-26T15:56:22.731Z,11.53
2017-10-26T15:58:50.189Z,11.60
2017-10-26T16:01:17.701Z,11.27
2017-10-26T16:03:45.981Z,11.83
2017-10-26T16:06:14.188Z,12.03
2017-10-26T16:08:41.698Z,11.13
2017-10-26T16:11:09.107Z,10.50
2017-10-26T16:13:36.615Z,13.30
2017-10-26T16:16:04.047Z,11.30
2017-10-26T16:18:31.488Z,10.97
2017-10-26T16:20:58.929Z,12.17
2017-10-26T16:23:26.361Z,14.93
2017-10-26T16:25:54.569Z,15.20
2017-10-26T16:28:22.009Z,14.70
2017-10-26T16:30:49.431Z,13.40
2017-10-26T16:33:16.871Z,13.37
2017-10-26T16:35:44.967Z,13.70
2017-10-26T16:38:13.175Z,15.30
2017-10-26T16:40:40.699Z,11.07
2017-10-26T16:43:08.129Z,11.40
2017-10-26T16:45:35.560Z,12.17
2017-10-26T16:48:02.999Z,10.20
2017-10-26T16:50:30.424Z,10.77
2017-10-26T16:52:58.619Z,15.67
2017-10-26T16:55:26.051Z,14.00
2017-10-26T16:57:54.249Z,11.60
2017-10-26T17:00:21.791Z,14.87
2017-10-26T17:02:49.992Z,12.93
2017-10-26T17:05:17.531Z,12.93
2017-10-26T17:07:45.735Z,14.93
2017-10-26T17:10:13.160Z,15.70
2017-10-26T17:12:41.372Z,17.00
2017-10-26T17:15:08.804Z,15.50
2017-10-26T17:17:36.231Z,13.10
2017-10-26T17:20:03.671Z,16.87
2017-10-26T17:22:31.106Z,14.80
2017-10-26T17:24:58.613Z,16.90
2017-10-26T17:27:26.832Z,16.70
2017-10-26T17:29:54.257Z,13.93
2017-10-26T17:32:22.457Z,15.60
2017-10-26T17:34:49.880Z,16.53
2017-10-26T17:37:18.094Z,18.77
2017-10-26T17:39:45.524Z,15.43
2017-10-26T17:42:13.061Z,14.57
2017-10-26T17:44:40.492Z,14.77
2017-10-26T17:47:07.941Z,15.80
2017-10-26T17:49:35.372Z,17.20
2017-10-26T17:52:02.800Z,16.97
2017-10-26T17:54:31.009Z,16.67
2017-10-26T17:56:58.462Z,15.33
2017-10-26T17:59:25.876Z,15.60
2017-10-26T18:01:54.081Z,15.90
2017-10-26T18:04:21.520Z,15.80
2017-10-26T18:06:48.974Z,17.33
2017-10-26T18:09:17.167Z,17.20
2017-10-26T18:11:44.618Z,16.97
2017-10-26T18:14:12.059Z,17.07
2017-10-26T18:16:40.256Z,17.57
2017-10-26T18:19:07.888Z,16.80
2017-10-26T18:21:35.307Z,16.63
2017-10-26T18:24:02.813Z,17.17
2017-10-26T18:26:30.241Z,15.17
2017-10-26T18:28:57.675Z,14.50
2017-10-26T18:31:25.176Z,16.17
2017-10-26T18:33:53.376Z,14.50
2017-10-26T18:36:20.826Z,15.80
2017-10-26T18:38:49.025Z,14.60
2017-10-26T18:41:16.451Z,16.60
2017-10-26T18:43:44.724Z,14.30
2017-10-26T18:46:12.916Z,17.30
2017-10-26T18:48:40.352Z,14.97
2017-10-26T18:51:08.560Z,15.50
2017-10-26T18:53:35.996Z,15.20
2017-10-26T18:56:03.424Z,15.17
2017-10-26T18:58:30.868Z,15.67
2017-10-26T19:00:58.299Z,17.10
2017-10-26T19:03:25.755Z,15.10
2017-10-26T19:05:53.177Z,15.77
2017-10-26T19:08:20.612Z,15.10
2017-10-26T19:10:48.032Z,14.77
2017-10-26T19:13:15.473Z,14.33
2017-10-26T19:15:42.909Z,14.70
2017-10-26T19:18:10.348Z,15.37
2017-10-26T19:20:38.543Z,16.27
2017-10-26T19:23:05.972Z,16.00
2017-10-26T19:25:34.173Z,17.10
2017-10-26T19:28:01.611Z,16.87
2017-10-26T19:30:29.874Z,17.53
2017-10-26T19:32:57.347Z,16.67
2017-10-26T19:35:25.561Z,18.37
2017-10-26T19:37:52.996Z,16.60
2017-10-26T19:40:20.426Z,18.27
2017-10-26T19:42:48.633Z,16.10
2017-10-26T19:45:16.067Z,17.53
2017-10-26T19:47:43.519Z,17.10
2017-10-26T19:50:11.739Z,18.20
2017-10-26T19:52:39.190Z,16.17
2017-10-26T19:55:06.624Z,15.97
2017-10-26T19:57:34.059Z,17.10
2017-10-26T20:00:02.258Z,16.80
2017-10-26T20:02:29.695Z,17.43
2017-10-26T20:04:57.891Z,16.33
2017-10-26T20:07:25.344Z,16.63
2017-10-26T20:09:52.777Z,17.20
2017-10-26T20:12:21.052Z,17.37
2017-10-26T20:14:49.253Z,17.90
2017-10-26T20:17:16.696Z,19.40
2017-10-26T20:19:44.939Z,17.80
2017-10-26T20:22:12.583Z,18.47
2017-10-26T20:24:39.996Z,19.90
2017-10-26T20:27:08.204Z,18.00
2017-10-26T20:29:35.631Z,21.20
2017-10-26T20:32:03.092Z,22.00
2017-10-26T20:34:30.533Z,23.20
2017-10-26T20:36:58.733Z,25.80
2017-10-26T20:39:26.200Z,22.10
2017-10-26T20:41:53.613Z,19.53
2017-10-26T20:44:21.063Z,20.40
2017-10-26T20:46:49.260Z,20.03
2017-10-26T20:49:22.308Z,19.40
2017-10-26T20:51:55.447Z,18.53
2017-10-26T20:54:28.513Z,20.50
2017-10-26T20:57:02.482Z,18.53
2017-10-26T20:59:35.590Z,19.37
2017-10-26T21:02:08.746Z,18.30
2017-10-26T21:04:41.997Z,21.23
2017-10-26T21:07:15.928Z,20.33
2017-10-26T21:09:43.359Z,19.00
2017-10-26T21:12:17.313Z,17.67
2017-10-26T21:14:44.743Z,20.80
2017-10-26T21:17:12.176Z,19.17
2017-10-26T21:19:39.635Z,19.30
2017-10-26T21:22:07.069Z,19.10
2017-10-26T21:24:34.504Z,21.60
2017-10-26T21:27:01.932Z,19.80
2017-10-26T21:29:29.361Z,21.00
2017-10-26T21:31:56.795Z,20.37
2017-10-26T21:34:24.281Z,21.97
2017-10-26T21:36:52.485Z,21.63
2017-10-26T21:39:19.912Z,20.10
2017-10-26T21:41:48.107Z,20.43
2017-10-26T21:44:15.544Z,18.63
2017-10-26T21:46:43.745Z,18.03
2017-10-26T21:49:11.173Z,16.60
2017-10-26T21:51:45.247Z,17.40
2017-10-26T21:54:12.688Z,17.97
2017-10-26T21:56:40.123Z,18.77
2017-10-26T21:59:07.556Z,18.83
2017-10-26T22:01:35.747Z,17.70
2017-10-26T22:04:03.184Z,17.30
2017-10-26T22:06:35.368Z,18.60
2017-10-26T22:09:02.784Z,19.83
2017-10-26T22:11:30.211Z,17.90
2017-10-26T22:13:57.642Z,19.47
2017-10-26T22:16:25.073Z,20.57
2017-10-26T22:18:52.504Z,19.20
2017-10-26T22:21:19.936Z,18.47
2017-10-26T22:23:47.376Z,20.57
2017-10-26T22:26:14.796Z,17.77
2017-10-26T22:28:42.240Z,17.33
2017-10-26T22:31:09.662Z,18.60
2017-10-26T22:33:37.105Z,18.13
2017-10-26T22:36:04.528Z,17.77
2017-10-26T22:38:31.993Z,19.50
2017-10-26T22:41:00.208Z,19.90
2017-10-26T22:43:27.640Z,16.80
2017-10-26T22:45:55.080Z,20.23
2017-10-26T22:48:23.271Z,17.60
2017-10-26T22:50:50.704Z,16.27
2017-10-26T22:53:18.943Z,16.40
2017-10-26T22:55:46.390Z,14.87
2017-10-26T22:58:13.812Z,14.63
2017-10-26T23:00:41.251Z,15.20
2017-10-26T23:03:08.680Z,15.97
2017-10-26T23:05:36.143Z,15.60
2017-10-26T23:08:03.581Z,17.20
2017-10-26T23:10:31.018Z,15.80
2017-10-26T23:12:58.449Z,13.77
2017-10-26T23:15:26.643Z,15.37
2017-10-26T23:17:54.077Z,15.10
2017-10-26T23:20:22.286Z,14.10
2017-10-26T23:22:49.713Z,14.23
2017-10-26T23:25:17.937Z,12.77
2017-10-26T23:27:45.343Z,13.47
2017-10-26T23:30:12.776Z,14.40
2017-10-26T23:32:40.200Z,14.67
2017-10-26T23:35:08.402Z,15.10
2017-10-26T23:37:35.837Z,14.23
2017-10-26T23:40:03.281Z,14.37
2017-10-26T23:42:30.715Z,15.03
2017-10-26T23:44:58.151Z,14.90
2017-10-26T23:47:26.356Z,15.63
2017-10-26T23:49:53.787Z,16.73
2017-10-26T23:52:21.998Z,14.77
2017-10-26T23:54:49.419Z,16.80
2017-10-26T23:57:17.611Z,16.63
2017-10-26T23:59:45.039Z,16.40
